sensor_id;sensor_type;location;lat;lon;timestamp;pressure;altitude;pressure_sealevel;temperature;humidity
8320;BME280;4197;42.130;24.746;2022-11-15T00:00:49;100256.34;;;6.37;100.00
8320;BME280;4197;42.130;24.746;2022-11-15T00:03:18;100260.28;;;6.31;100.00
8320;BME280;4197;42.130;24.746;2022-11-15T00:05:49;100261.50;;;6.24;100.00
8320;BME280;4197;42.130;24.746;2022-11-15T00:08:17;100249.38;;;6.13;100.00
8320;BME280;4197;42.130;24.746;2022-11-15T00:10:54;100252.28;;;6.03;100.00
8320;BME280;4197;42.130;24.746;2022-11-15T00:13:22;100257.38;;;6.05;100.00
8320;BME280;4197;42.130;24.746;2022-11-15T00:15:50;100254.69;;;6.05;100.00
8320;BME280;4197;42.130;24.746;2022-11-15T00:18:19;100256.78;;;6.08;100.00
8320;BME280;4197;42.130;24.746;2022-11-15T00:20:48;100258.34;;;6.09;100.00
8320;BME280;4197;42.130;24.746;2022-11-15T00:23:16;100245.88;;;6.13;100.00
8320;BME280;4197;42.130;24.746;2022-11-15T00:25:44;100253.78;;;6.32;100.00
8320;BME280;4197;42.130;24.746;2022-11-15T00:28:12;100261.28;;;6.35;100.00
8320;BME280;4197;42.130;24.746;2022-11-15T00:30:40;100254.38;;;6.29;100.00
8320;BME280;4197;42.130;24.746;2022-11-15T00:33:08;100252.50;;;6.29;100.00
8320;BME280;4197;42.130;24.746;2022-11-15T00:35:37;100247.72;;;6.26;100.00
8320;BME280;4197;42.130;24.746;2022-11-15T00:38:07;100251.44;;;6.16;100.00
8320;BME280;4197;42.130;24.746;2022-11-15T00:40:35;100257.94;;;6.15;100.00
8320;BME280;4197;42.130;24.746;2022-11-15T00:43:03;100247.34;;;6.19;100.00
8320;BME280;4197;42.130;24.746;2022-11-15T00:45:31;100249.38;;;6.13;100.00
8320;BME280;4197;42.130;24.746;2022-11-15T00:47:59;100248.09;;;6.11;100.00
8320;BME280;4197;42.130;24.746;2022-11-15T00:50:27;100245.00;;;6.03;100.00
8320;BME280;4197;42.130;24.746;2022-11-15T00:52:55;100247.09;;;6.07;100.00
8320;BME280;4197;42.130;24.746;2022-11-15T00:55:25;100238.97;;;6.20;100.00
8320;BME280;4197;42.130;24.746;2022-11-15T00:57:53;100231.88;;;6.24;100.00
8320;BME280;4197;42.130;24.746;2022-11-15T01:00:21;100231.69;;;6.21;100.00
8320;BME280;4197;42.130;24.746;2022-11-15T01:02:49;100234.56;;;6.24;100.00
8320;BME280;4197;42.130;24.746;2022-11-15T01:05:18;100240.19;;;6.37;100.00
8320;BME280;4197;42.130;24.746;2022-11-15T01:07:46;100239.41;;;6.36;100.00
8320;BME280;4197;42.130;24.746;2022-11-15T01:10:14;100236.03;;;6.31;100.00
8320;BME280;4197;42.130;24.746;2022-11-15T01:12:43;100236.25;;;6.20;100.00
8320;BME280;4197;42.130;24.746;2022-11-15T01:15:11;100230.03;;;6.34;100.00
8320;BME280;4197;42.130;24.746;2022-11-15T01:17:40;100228.69;;;6.45;100.00
8320;BME280;4197;42.130;24.746;2022-11-15T01:20:09;100226.97;;;6.49;100.00
8320;BME280;4197;42.130;24.746;2022-11-15T01:22:37;100218.69;;;6.45;100.00
8320;BME280;4197;42.130;24.746;2022-11-15T01:25:05;100223.66;;;6.52;100.00
8320;BME280;4197;42.130;24.746;2022-11-15T01:27:34;100221.84;;;6.39;100.00
8320;BME280;4197;42.130;24.746;2022-11-15T01:30:05;100225.75;;;6.33;100.00
8320;BME280;4197;42.130;24.746;2022-11-15T01:32:33;100226.72;;;6.37;100.00
8320;BME280;4197;42.130;24.746;2022-11-15T01:35:01;100226.50;;;6.24;100.00
8320;BME280;4197;42.130;24.746;2022-11-15T01:37:30;100226.09;;;6.17;100.00
8320;BME280;4197;42.130;24.746;2022-11-15T01:39:58;100220.78;;;6.26;100.00
8320;BME280;4197;42.130;24.746;2022-11-15T01:42:26;100218.41;;;6.24;100.00
8320;BME280;4197;42.130;24.746;2022-11-15T01:44:54;100222.56;;;6.31;100.00
8320;BME280;4197;42.130;24.746;2022-11-15T01:47:27;100206.78;;;6.38;100.00
8320;BME280;4197;42.130;24.746;2022-11-15T01:49:59;100215.78;;;6.33;100.00
8320;BME280;4197;42.130;24.746;2022-11-15T01:52:30;100207.06;;;6.36;100.00
8320;BME280;4197;42.130;24.746;2022-11-15T01:55:04;100207.03;;;6.28;100.00
8320;BME280;4197;42.130;24.746;2022-11-15T01:57:33;100207.25;;;6.17;100.00
8320;BME280;4197;42.130;24.746;2022-11-15T02:00:03;100213.13;;;6.19;100.00
8320;BME280;4197;42.130;24.746;2022-11-15T02:02:36;100213.38;;;6.09;100.00
8320;BME280;4197;42.130;24.746;2022-11-15T02:05:06;100214.47;;;6.08;100.00
8320;BME280;4197;42.130;24.746;2022-11-15T02:07:35;100213.63;;;6.21;100.00
8320;BME280;4197;42.130;24.746;2022-11-15T02:10:07;100222.19;;;6.23;100.00
8320;BME280;4197;42.130;24.746;2022-11-15T02:12:36;100208.84;;;6.41;100.00
8320;BME280;4197;42.130;24.746;2022-11-15T02:15:06;100212.91;;;6.30;100.00
8320;BME280;4197;42.130;24.746;2022-11-15T02:17:50;100209.59;;;6.33;100.00
8320;BME280;4197;42.130;24.746;2022-11-15T02:20:42;100211.06;;;6.39;100.00
8320;BME280;4197;42.130;24.746;2022-11-15T02:23:37;100205.97;;;6.37;100.00
8320;BME280;4197;42.130;24.746;2022-11-15T02:26:36;100209.34;;;6.43;100.00
8320;BME280;4197;42.130;24.746;2022-11-15T02:29:10;100205.31;;;6.54;100.00
8320;BME280;4197;42.130;24.746;2022-11-15T02:31:47;100209.69;;;6.50;100.00
8320;BME280;4197;42.130;24.746;2022-11-15T02:34:21;100201.28;;;6.43;100.00
8320;BME280;4197;42.130;24.746;2022-11-15T02:37:02;100206.41;;;6.31;100.00
8320;BME280;4197;42.130;24.746;2022-11-15T02:39:35;100204.72;;;6.35;100.00
8320;BME280;4197;42.130;24.746;2022-11-15T02:42:08;100202.47;;;6.37;100.00
8320;BME280;4197;42.130;24.746;2022-11-15T02:45:03;100195.00;;;6.34;100.00
8320;BME280;4197;42.130;24.746;2022-11-15T02:47:36;100200.16;;;6.44;100.00
8320;BME280;4197;42.130;24.746;2022-11-15T02:50:10;100199.91;;;6.32;100.00
8320;BME280;4197;42.130;24.746;2022-11-15T02:52:39;100198.09;;;6.18;100.00
8320;BME280;4197;42.130;24.746;2022-11-15T02:55:24;100201.41;;;6.15;100.00
8320;BME280;4197;42.130;24.746;2022-11-15T02:58:02;100196.06;;;6.24;100.00
8320;BME280;4197;42.130;24.746;2022-11-15T03:00:35;100189.22;;;6.40;100.00
8320;BME280;4197;42.130;24.746;2022-11-15T03:06:11;100192.50;;;6.37;100.00
8320;BME280;4197;42.130;24.746;2022-11-15T03:08:50;100197.66;;;6.25;100.00
8320;BME280;4197;42.130;24.746;2022-11-15T03:11:22;100197.94;;;6.23;100.00
8320;BME280;4197;42.130;24.746;2022-11-15T03:13:56;100189.44;;;6.30;100.00
8320;BME280;4197;42.130;24.746;2022-11-15T03:16:29;100197.47;;;6.21;100.00
8320;BME280;4197;42.130;24.746;2022-11-15T03:19:03;100198.56;;;6.20;100.00
8320;BME280;4197;42.130;24.746;2022-11-15T03:21:37;100198.44;;;6.25;100.00
8320;BME280;4197;42.130;24.746;2022-11-15T03:24:08;100195.63;;;6.31;100.00
8320;BME280;4197;42.130;24.746;2022-11-15T03:26:38;100204.81;;;6.30;100.00
8320;BME280;4197;42.130;24.746;2022-11-15T03:29:12;100185.66;;;6.31;100.00
8320;BME280;4197;42.130;24.746;2022-11-15T03:31:44;100186.19;;;6.42;100.00
8320;BME280;4197;42.130;24.746;2022-11-15T03:34:25;100186.56;;;6.49;100.00
8320;BME280;4197;42.130;24.746;2022-11-15T03:36:55;100181.38;;;6.61;100.00
8320;BME280;4197;42.130;24.746;2022-11-15T03:39:23;100190.88;;;6.59;100.00
8320;BME280;4197;42.130;24.746;2022-11-15T03:42:00;100181.41;;;6.39;100.00
8320;BME280;4197;42.130;24.746;2022-11-15T03:44:39;100181.50;;;6.56;100.00
8320;BME280;4197;42.130;24.746;2022-11-15T03:47:11;100174.50;;;6.46;100.00
8320;BME280;4197;42.130;24.746;2022-11-15T03:49:44;100171.31;;;6.44;100.00
8320;BME280;4197;42.130;24.746;2022-11-15T03:52:17;100164.22;;;6.48;100.00
8320;BME280;4197;42.130;24.746;2022-11-15T03:54:51;100161.75;;;6.61;100.00
8320;BME280;4197;42.130;24.746;2022-11-15T03:57:20;100163.94;;;6.59;100.00
8320;BME280;4197;42.130;24.746;2022-11-15T03:59:48;100157.00;;;6.66;100.00
8320;BME280;4197;42.130;24.746;2022-11-15T04:02:16;100163.28;;;6.53;100.00
8320;BME280;4197;42.130;24.746;2022-11-15T04:04:45;100161.69;;;6.52;100.00
8320;BME280;4197;42.130;24.746;2022-11-15T04:07:14;100156.44;;;6.47;100.00
8320;BME280;4197;42.130;24.746;2022-11-15T04:09:42;100146.78;;;6.46;100.00
8320;BME280;4197;42.130;24.746;2022-11-15T04:12:24;100153.69;;;6.38;100.00
8320;BME280;4197;42.130;24.746;2022-11-15T04:15:00;100151.28;;;6.37;100.00
8320;BME280;4197;42.130;24.746;2022-11-15T04:17:36;100151.50;;;6.40;100.00
8320;BME280;4197;42.130;24.746;2022-11-15T04:20:08;100148.22;;;6.52;100.00
8320;BME280;4197;42.130;24.746;2022-11-15T04:22:55;100137.09;;;6.45;100.00
8320;BME280;4197;42.130;24.746;2022-11-15T04:25:41;100136.63;;;6.43;100.00
8320;BME280;4197;42.130;24.746;2022-11-15T04:28:10;100140.06;;;6.35;100.00
8320;BME280;4197;42.130;24.746;2022-11-15T04:30:39;100136.63;;;6.43;100.00
8320;BME280;4197;42.130;24.746;2022-11-15T04:33:07;100135.25;;;6.54;100.00
8320;BME280;4197;42.130;24.746;2022-11-15T04:35:36;100131.88;;;6.48;100.00
8320;BME280;4197;42.130;24.746;2022-11-15T04:38:06;100134.66;;;6.35;100.00
8320;BME280;4197;42.130;24.746;2022-11-15T04:40:34;100141.75;;;6.31;100.00
8320;BME280;4197;42.130;24.746;2022-11-15T04:43:03;100144.78;;;6.29;100.00
8320;BME280;4197;42.130;24.746;2022-11-15T04:45:31;100135.53;;;6.21;100.00
8320;BME280;4197;42.130;24.746;2022-11-15T04:47:59;100141.38;;;6.23;100.00
8320;BME280;4197;42.130;24.746;2022-11-15T04:50:27;100144.56;;;6.25;100.00
8320;BME280;4197;42.130;24.746;2022-11-15T04:52:57;100139.13;;;6.17;100.00
8320;BME280;4197;42.130;24.746;2022-11-15T04:55:25;100139.19;;;6.25;100.00
8320;BME280;4197;42.130;24.746;2022-11-15T04:58:00;100131.69;;;6.14;100.00
8320;BME280;4197;42.130;24.746;2022-11-15T05:00:29;100128.31;;;6.08;100.00
8320;BME280;4197;42.130;24.746;2022-11-15T05:02:57;100127.56;;;6.16;100.00
8320;BME280;4197;42.130;24.746;2022-11-15T05:05:43;100132.78;;;6.13;100.00
8320;BME280;4197;42.130;24.746;2022-11-15T05:08:12;100133.09;;;6.11;100.00
8320;BME280;4197;42.130;24.746;2022-11-15T05:10:40;100133.09;;;6.11;100.00
8320;BME280;4197;42.130;24.746;2022-11-15T05:13:08;100139.88;;;6.09;100.00
8320;BME280;4197;42.130;24.746;2022-11-15T05:15:36;100138.91;;;6.05;100.00
8320;BME280;4197;42.130;24.746;2022-11-15T05:18:04;100142.28;;;6.10;100.00
8320;BME280;4197;42.130;24.746;2022-11-15T05:20:32;100136.22;;;6.05;100.00
8320;BME280;4197;42.130;24.746;2022-11-15T05:23:00;100145.25;;;6.09;100.00
8320;BME280;4197;42.130;24.746;2022-11-15T05:25:30;100131.13;;;6.03;100.00
8320;BME280;4197;42.130;24.746;2022-11-15T05:27:58;100133.16;;;5.97;100.00
8320;BME280;4197;42.130;24.746;2022-11-15T05:30:26;100137.56;;;5.93;100.00
8320;BME280;4197;42.130;24.746;2022-11-15T05:32:54;100137.56;;;5.93;100.00
8320;BME280;4197;42.130;24.746;2022-11-15T05:35:31;100139.81;;;6.00;100.00
8320;BME280;4197;42.130;24.746;2022-11-15T05:38:02;100140.13;;;5.98;100.00
8320;BME280;4197;42.130;24.746;2022-11-15T05:40:32;100137.13;;;6.00;100.00
8320;BME280;4197;42.130;24.746;2022-11-15T05:43:02;100135.66;;;6.16;100.00
8320;BME280;4197;42.130;24.746;2022-11-15T05:45:31;100141.88;;;6.25;100.00
8320;BME280;4197;42.130;24.746;2022-11-15T05:48:05;100141.38;;;6.23;100.00
8320;BME280;4197;42.130;24.746;2022-11-15T05:50:35;100144.81;;;6.38;100.00
8320;BME280;4197;42.130;24.746;2022-11-15T05:53:05;100148.44;;;6.33;100.00
8320;BME280;4197;42.130;24.746;2022-11-15T05:55:35;100148.81;;;6.40;100.00
8320;BME280;4197;42.130;24.746;2022-11-15T05:58:05;100151.16;;;6.42;100.00
8320;BME280;4197;42.130;24.746;2022-11-15T06:00:34;100160.25;;;6.46;100.00
8320;BME280;4197;42.130;24.746;2022-11-15T06:03:02;100158.63;;;6.45;100.00
8320;BME280;4197;42.130;24.746;2022-11-15T06:05:30;100157.38;;;6.51;100.00
8320;BME280;4197;42.130;24.746;2022-11-15T06:07:58;100160.91;;;6.52;100.00
8320;BME280;4197;42.130;24.746;2022-11-15T06:10:26;100162.44;;;6.44;100.00
8320;BME280;4197;42.130;24.746;2022-11-15T06:12:59;100159.97;;;6.56;100.00
8320;BME280;4197;42.130;24.746;2022-11-15T06:15:28;100165.31;;;6.47;100.00
8320;BME280;4197;42.130;24.746;2022-11-15T06:17:56;100156.44;;;6.47;100.00
8320;BME280;4197;42.130;24.746;2022-11-15T06:20:25;100159.34;;;6.59;100.00
8320;BME280;4197;42.130;24.746;2022-11-15T06:22:57;100163.78;;;6.55;100.00
8320;BME280;4197;42.130;24.746;2022-11-15T06:25:25;100169.31;;;6.59;100.00
8320;BME280;4197;42.130;24.746;2022-11-15T06:27:55;100163.59;;;6.52;100.00
8320;BME280;4197;42.130;24.746;2022-11-15T06:30:25;100164.69;;;6.51;100.00
8320;BME280;4197;42.130;24.746;2022-11-15T06:32:59;100159.16;;;6.56;100.00
8320;BME280;4197;42.130;24.746;2022-11-15T06:35:29;100163.31;;;6.62;100.00
8320;BME280;4197;42.130;24.746;2022-11-15T06:38:02;100161.78;;;6.69;100.00
8320;BME280;4197;42.130;24.746;2022-11-15T06:40:33;100161.06;;;6.86;100.00
8320;BME280;4197;42.130;24.746;2022-11-15T06:43:01;100152.19;;;6.95;100.00
8320;BME280;4197;42.130;24.746;2022-11-15T06:45:31;100157.75;;;6.98;100.00
8320;BME280;4197;42.130;24.746;2022-11-15T06:48:00;100161.69;;;6.92;100.00
8320;BME280;4197;42.130;24.746;2022-11-15T06:50:28;100167.00;;;7.06;100.00
8320;BME280;4197;42.130;24.746;2022-11-15T06:53:01;100165.56;;;7.08;100.00
8320;BME280;4197;42.130;24.746;2022-11-15T06:55:30;100168.28;;;7.17;100.00
8320;BME280;4197;42.130;24.746;2022-11-15T06:57:58;100166.88;;;7.28;100.00
8320;BME280;4197;42.130;24.746;2022-11-15T07:00:26;100161.97;;;7.30;100.00
8320;BME280;4197;42.130;24.746;2022-11-15T07:02:59;100162.16;;;7.43;100.00
8320;BME280;4197;42.130;24.746;2022-11-15T07:05:27;100155.50;;;7.40;100.00
8320;BME280;4197;42.130;24.746;2022-11-15T07:07:56;100166.63;;;7.47;100.00
8320;BME280;4197;42.130;24.746;2022-11-15T07:10:26;100156.00;;;7.59;100.00
8320;BME280;4197;42.130;24.746;2022-11-15T07:12:55;100147.91;;;7.59;100.00
8320;BME280;4197;42.130;24.746;2022-11-15T07:15:25;100147.44;;;7.57;100.00
8320;BME280;4197;42.130;24.746;2022-11-15T07:17:53;100152.97;;;7.61;100.00
8320;BME280;4197;42.130;24.746;2022-11-15T07:20:23;100146.50;;;7.71;100.00
8320;BME280;4197;42.130;24.746;2022-11-15T07:22:51;100144.56;;;7.80;100.00
8320;BME280;4197;42.130;24.746;2022-11-15T07:25:19;100144.56;;;7.89;100.00
8320;BME280;4197;42.130;24.746;2022-11-15T07:27:54;100143.13;;;8.00;100.00
8320;BME280;4197;42.130;24.746;2022-11-15T07:30:23;100142.97;;;7.96;100.00
8320;BME280;4197;42.130;24.746;2022-11-15T07:32:53;100140.13;;;8.01;100.00
8320;BME280;4197;42.130;24.746;2022-11-15T07:35:22;100150.78;;;8.07;100.00
8320;BME280;4197;42.130;24.746;2022-11-15T07:37:55;100143.91;;;8.09;100.00
8320;BME280;4197;42.130;24.746;2022-11-15T07:40:24;100155.03;;;8.16;100.00
8320;BME280;4197;42.130;24.746;2022-11-15T07:42:58;100138.16;;;8.28;100.00
8320;BME280;4197;42.130;24.746;2022-11-15T07:45:26;100140.38;;;8.43;100.00
8320;BME280;4197;42.130;24.746;2022-11-15T07:47:55;100142.88;;;8.66;100.00
8320;BME280;4197;42.130;24.746;2022-11-15T07:50:25;100141.53;;;8.81;100.00
8320;BME280;4197;42.130;24.746;2022-11-15T07:52:55;100133.84;;;8.91;100.00
8320;BME280;4197;42.130;24.746;2022-11-15T07:55:23;100137.09;;;9.06;100.00
8320;BME280;4197;42.130;24.746;2022-11-15T07:57:51;100138.97;;;9.14;100.00
8320;BME280;4197;42.130;24.746;2022-11-15T08:00:20;100141.59;;;9.31;100.00
8320;BME280;4197;42.130;24.746;2022-11-15T08:02:48;100138.97;;;9.14;100.00
8320;BME280;4197;42.130;24.746;2022-11-15T08:05:16;100132.00;;;9.13;100.00
8320;BME280;4197;42.130;24.746;2022-11-15T08:07:45;100136.78;;;9.07;100.00
8320;BME280;4197;42.130;24.746;2022-11-15T08:10:14;100135.41;;;9.01;100.00
8320;BME280;4197;42.130;24.746;2022-11-15T08:12:46;100132.81;;;9.05;100.00
8320;BME280;4197;42.130;24.746;2022-11-15T08:15:14;100133.44;;;9.10;100.00
8320;BME280;4197;42.130;24.746;2022-11-15T08:17:42;100124.66;;;9.13;100.00
8320;BME280;4197;42.130;24.746;2022-11-15T08:20:10;100124.06;;;9.08;100.00
8320;BME280;4197;42.130;24.746;2022-11-15T08:22:39;100124.06;;;9.08;100.00
8320;BME280;4197;42.130;24.746;2022-11-15T08:25:08;100123.56;;;9.14;100.00
8320;BME280;4197;42.130;24.746;2022-11-15T08:27:36;100119.59;;;9.12;100.00
8320;BME280;4197;42.130;24.746;2022-11-15T08:30:05;100121.81;;;9.10;100.00
8320;BME280;4197;42.130;24.746;2022-11-15T08:32:34;100125.00;;;9.33;100.00
8320;BME280;4197;42.130;24.746;2022-11-15T08:35:02;100119.72;;;9.36;100.00
8320;BME280;4197;42.130;24.746;2022-11-15T08:37:30;100116.78;;;9.71;100.00
8320;BME280;4197;42.130;24.746;2022-11-15T08:39:58;100116.78;;;9.71;100.00
8320;BME280;4197;42.130;24.746;2022-11-15T08:42:28;100120.38;;;9.75;100.00
8320;BME280;4197;42.130;24.746;2022-11-15T08:44:56;100118.16;;;9.77;100.00
8320;BME280;4197;42.130;24.746;2022-11-15T08:47:24;100113.41;;;9.74;100.00
8320;BME280;4197;42.130;24.746;2022-11-15T08:49:53;100110.00;;;9.98;100.00
8320;BME280;4197;42.130;24.746;2022-11-15T08:52:21;100102.00;;;10.02;100.00
8320;BME280;4197;42.130;24.746;2022-11-15T08:54:49;100102.47;;;10.16;100.00
8320;BME280;4197;42.130;24.746;2022-11-15T08:57:17;100101.13;;;10.22;100.00
8320;BME280;4197;42.130;24.746;2022-11-15T08:59:47;100095.94;;;10.17;100.00
8320;BME280;4197;42.130;24.746;2022-11-15T09:02:15;100088.25;;;10.19;100.00
8320;BME280;4197;42.130;24.746;2022-11-15T09:04:44;100088.19;;;10.28;100.00
8320;BME280;4197;42.130;24.746;2022-11-15T09:07:13;100083.94;;;10.39;100.00
8320;BME280;4197;42.130;24.746;2022-11-15T09:09:41;100082.94;;;10.68;99.70
8320;BME280;4197;42.130;24.746;2022-11-15T09:12:10;100076.50;;;10.73;100.00
8320;BME280;4197;42.130;24.746;2022-11-15T09:14:38;100073.56;;;10.66;100.00
8320;BME280;4197;42.130;24.746;2022-11-15T09:17:08;100065.09;;;10.80;100.00
8320;BME280;4197;42.130;24.746;2022-11-15T09:19:37;100056.81;;;10.88;100.00
8320;BME280;4197;42.130;24.746;2022-11-15T09:22:06;100051.38;;;11.01;100.00
8320;BME280;4197;42.130;24.746;2022-11-15T09:24:34;100048.00;;;11.04;100.00
8320;BME280;4197;42.130;24.746;2022-11-15T09:27:02;100040.50;;;11.13;99.26
8320;BME280;4197;42.130;24.746;2022-11-15T09:29:48;100037.91;;;11.04;100.00
8320;BME280;4197;42.130;24.746;2022-11-15T09:32:17;100039.72;;;11.12;100.00
8320;BME280;4197;42.130;24.746;2022-11-15T09:34:45;100027.09;;;11.32;100.00
8320;BME280;4197;42.130;24.746;2022-11-15T09:37:14;100028.25;;;11.31;99.66
8320;BME280;4197;42.130;24.746;2022-11-15T09:39:42;100020.66;;;11.37;100.00
8320;BME280;4197;42.130;24.746;2022-11-15T09:42:29;100020.03;;;11.44;100.00
8320;BME280;4197;42.130;24.746;2022-11-15T09:45:14;100014.22;;;11.57;100.00
8320;BME280;4197;42.130;24.746;2022-11-15T09:48:00;100013.22;;;11.78;100.00
8320;BME280;4197;42.130;24.746;2022-11-15T09:50:38;100009.31;;;11.63;98.90
8320;BME280;4197;42.130;24.746;2022-11-15T09:53:11;100006.34;;;11.68;97.56
8320;BME280;4197;42.130;24.746;2022-11-15T09:55:47;100007.50;;;11.67;97.12
8320;BME280;4197;42.130;24.746;2022-11-15T09:58:24;100008.84;;;11.45;96.60
8320;BME280;4197;42.130;24.746;2022-11-15T10:00:57;100008.78;;;11.57;96.98
8320;BME280;4197;42.130;24.746;2022-11-15T10:03:33;99988.81;;;11.66;96.29
8320;BME280;4197;42.130;24.746;2022-11-15T10:06:03;99986.31;;;11.73;97.62
8320;BME280;4197;42.130;24.746;2022-11-15T10:08:42;99983.81;;;11.96;97.01
8320;BME280;4197;42.130;24.746;2022-11-15T10:11:17;99984.63;;;12.12;96.40
8320;BME280;4197;42.130;24.746;2022-11-15T10:14:10;99973.88;;;12.35;93.71
8320;BME280;4197;42.130;24.746;2022-11-15T10:17:02;99976.72;;;12.23;91.77
8320;BME280;4197;42.130;24.746;2022-11-15T10:19:42;99973.75;;;12.28;93.33
8320;BME280;4197;42.130;24.746;2022-11-15T10:22:27;99966.75;;;12.46;93.82
8320;BME280;4197;42.130;24.746;2022-11-15T10:25:19;99961.75;;;12.64;94.23
8320;BME280;4197;42.130;24.746;2022-11-15T10:27:53;99971.06;;;12.83;90.68
8320;BME280;4197;42.130;24.746;2022-11-15T10:30:23;99964.56;;;12.87;92.06
8320;BME280;4197;42.130;24.746;2022-11-15T10:32:56;99955.25;;;12.88;91.00
8320;BME280;4197;42.130;24.746;2022-11-15T10:35:27;99955.47;;;13.18;89.75
8320;BME280;4197;42.130;24.746;2022-11-15T10:38:05;99947.25;;;13.15;88.70
8320;BME280;4197;42.130;24.746;2022-11-15T10:40:35;99945.81;;;13.21;88.72
8320;BME280;4197;42.130;24.746;2022-11-15T10:43:14;99946.81;;;13.32;89.25
8320;BME280;4197;42.130;24.746;2022-11-15T10:45:43;99939.38;;;13.29;88.76
8320;BME280;4197;42.130;24.746;2022-11-15T10:48:24;99928.47;;;13.29;87.56
8320;BME280;4197;42.130;24.746;2022-11-15T10:50:54;99926.47;;;13.07;88.59
8320;BME280;4197;42.130;24.746;2022-11-15T10:53:29;99922.66;;;12.72;89.95
8320;BME280;4197;42.130;24.746;2022-11-15T10:56:02;99917.22;;;12.72;91.04
8320;BME280;4197;42.130;24.746;2022-11-15T10:58:35;99920.22;;;12.67;90.51
8320;BME280;4197;42.130;24.746;2022-11-15T11:01:16;99909.28;;;12.64;90.02
8320;BME280;4197;42.130;24.746;2022-11-15T11:03:57;99911.91;;;12.80;89.21
8320;BME280;4197;42.130;24.746;2022-11-15T11:06:27;99903.34;;;12.78;89.45
8320;BME280;4197;42.130;24.746;2022-11-15T11:08:57;99902.84;;;12.72;89.71
8320;BME280;4197;42.130;24.746;2022-11-15T11:11:44;99898.97;;;12.73;91.08
8320;BME280;4197;42.130;24.746;2022-11-15T11:14:15;99894.72;;;12.76;88.90
8320;BME280;4197;42.130;24.746;2022-11-15T11:16:50;99895.06;;;12.55;90.48
8320;BME280;4197;42.130;24.746;2022-11-15T11:19:34;99890.41;;;12.55;91.45
8320;BME280;4197;42.130;24.746;2022-11-15T11:22:11;99891.41;;;12.47;90.63
8320;BME280;4197;42.130;24.746;2022-11-15T11:24:43;99872.53;;;12.54;90.36
8320;BME280;4197;42.130;24.746;2022-11-15T11:27:20;99868.13;;;12.49;90.87
8320;BME280;4197;42.130;24.746;2022-11-15T11:30:02;99865.56;;;12.57;89.71
8320;BME280;4197;42.130;24.746;2022-11-15T11:35:29;99858.84;;;12.50;90.75
8320;BME280;4197;42.130;24.746;2022-11-15T11:40:59;99852.13;;;12.44;91.76
8320;BME280;4197;42.130;24.746;2022-11-15T11:43:36;99851.25;;;12.60;93.01
8320;BME280;4197;42.130;24.746;2022-11-15T11:46:32;99844.25;;;12.59;90.71
8320;BME280;4197;42.130;24.746;2022-11-15T11:49:08;99846.03;;;12.70;89.34
8320;BME280;4197;42.130;24.746;2022-11-15T11:51:40;99841.44;;;12.55;89.60
8320;BME280;4197;42.130;24.746;2022-11-15T11:54:14;99842.97;;;12.53;89.97
8320;BME280;4197;42.130;24.746;2022-11-15T11:56:45;99841.44;;;12.55;90.81
8320;BME280;4197;42.130;24.746;2022-11-15T11:59:21;99835.72;;;12.41;90.75
8320;BME280;4197;42.130;24.746;2022-11-15T12:01:51;99824.69;;;12.34;91.67
8320;BME280;4197;42.130;24.746;2022-11-15T12:04:23;99823.88;;;12.33;90.73
8320;BME280;4197;42.130;24.746;2022-11-15T12:06:58;99820.88;;;12.38;91.75
8320;BME280;4197;42.130;24.746;2022-11-15T12:09:32;99820.66;;;12.47;91.71
8320;BME280;4197;42.130;24.746;2022-11-15T12:12:08;99820.06;;;12.54;92.23
8320;BME280;4197;42.130;24.746;2022-11-15T12:14:42;99816.88;;;12.71;91.70
8320;BME280;4197;42.130;24.746;2022-11-15T12:17:12;99810.38;;;12.76;92.10
8320;BME280;4197;42.130;24.746;2022-11-15T12:19:41;99806.34;;;12.89;89.65
8320;BME280;4197;42.130;24.746;2022-11-15T12:22:22;99804.69;;;13.04;87.70
8320;BME280;4197;42.130;24.746;2022-11-15T12:24:56;99797.81;;;12.90;88.19
8320;BME280;4197;42.130;24.746;2022-11-15T12:27:31;99797.31;;;12.85;89.52
8320;BME280;4197;42.130;24.746;2022-11-15T12:30:04;99786.13;;;12.67;89.74
8320;BME280;4197;42.130;24.746;2022-11-15T12:32:38;99786.97;;;12.71;89.96
8320;BME280;4197;42.130;24.746;2022-11-15T12:35:23;99782.66;;;12.89;90.38
8320;BME280;4197;42.130;24.746;2022-11-15T12:37:52;99787.25;;;12.66;90.13
8320;BME280;4197;42.130;24.746;2022-11-15T12:40:35;99786.19;;;12.51;91.42
8320;BME280;4197;42.130;24.746;2022-11-15T12:46:14;99781.81;;;12.46;91.96
8320;BME280;4197;42.130;24.746;2022-11-15T12:48:52;99775.53;;;12.42;90.79
8320;BME280;4197;42.130;24.746;2022-11-15T12:54:59;99767.50;;;12.49;90.90
8320;BME280;4197;42.130;24.746;2022-11-15T12:57:36;99762.00;;;12.46;90.87
8320;BME280;4197;42.130;24.746;2022-11-15T13:03:25;99749.91;;;12.43;91.88
8320;BME280;4197;42.130;24.746;2022-11-15T13:06:09;99749.59;;;12.48;93.67
8320;BME280;4197;42.130;24.746;2022-11-15T13:08:57;99740.38;;;12.53;93.98
8320;BME280;4197;42.130;24.746;2022-11-15T13:11:48;99748.66;;;12.60;93.83
8320;BME280;4197;42.130;24.746;2022-11-15T13:14:50;99741.84;;;12.70;92.13
8320;BME280;4197;42.130;24.746;2022-11-15T13:17:31;99742.63;;;12.70;92.42
8320;BME280;4197;42.130;24.746;2022-11-15T13:20:19;99743.84;;;12.73;92.98
8320;BME280;4197;42.130;24.746;2022-11-15T13:22:49;99738.56;;;12.61;93.22
8320;BME280;4197;42.130;24.746;2022-11-15T13:25:49;99732.63;;;12.55;93.05
8320;BME280;4197;42.130;24.746;2022-11-15T13:28:31;99729.28;;;12.62;93.91
8320;BME280;4197;42.130;24.746;2022-11-15T13:31:13;99732.72;;;12.59;93.86
8320;BME280;4197;42.130;24.746;2022-11-15T13:33:43;99725.63;;;12.54;94.28
8320;BME280;4197;42.130;24.746;2022-11-15T13:36:14;99720.03;;;12.47;95.02
8320;BME280;4197;42.130;24.746;2022-11-15T13:38:44;99723.69;;;12.35;94.59
8320;BME280;4197;42.130;24.746;2022-11-15T13:41:18;99725.09;;;12.25;95.43
8320;BME280;4197;42.130;24.746;2022-11-15T13:43:47;99733.34;;;12.13;95.18
8320;BME280;4197;42.130;24.746;2022-11-15T13:46:19;99723.84;;;12.03;96.74
8320;BME280;4197;42.130;24.746;2022-11-15T13:48:52;99722.22;;;12.18;97.51